Time;durP1;ratioP1;P1;durP2;ratioP2;P2;SDS_P1;SDS_P2;PMS_P1;PMS_P2;Temp;Humidity;BMP_temperature;BMP_pressure;BME280_temperature;BME280_humidity;BME280_pressure;Samples;Min_cycle;Max_cycle;Signal;HPM_P1;HPM_P2
2023/12/28 00:01:08;;;;;;;95.40;68.30;;;5.90;99.90;;;;;;5032562;28;20053;-62
2023/12/28 00:03:34;;;;;;;82.47;59.60;;;5.80;99.90;;;;;;5032202;28;20025;-68
2023/12/28 00:06:00;;;;;;;91.63;63.45;;;5.80;99.90;;;;;;5032493;28;20065;-67
2023/12/28 00:08:26;;;;;;;97.82;69.57;;;5.90;99.90;;;;;;5034789;28;20022;-62
2023/12/28 00:10:51;;;;;;;79.95;57.65;;;5.90;99.90;;;;;;5035969;28;20025;-68
2023/12/28 00:13:17;;;;;;;69.80;52.25;;;5.90;99.90;;;;;;5036089;28;20021;-66
2023/12/28 00:15:43;;;;;;;64.28;48.53;;;6.00;99.90;;;;;;5035913;28;20091;-64
2023/12/28 00:18:08;;;;;;;63.65;47.35;;;6.00;99.90;;;;;;5035585;28;20037;-63
2023/12/28 00:20:34;;;;;;;55.22;42.42;;;6.00;99.90;;;;;;5035982;28;20104;-63
2023/12/28 00:23:00;;;;;;;55.95;41.88;;;5.90;99.90;;;;;;5035700;28;20040;-64
2023/12/28 00:25:26;;;;;;;47.25;37.97;;;5.80;99.90;;;;;;5035659;28;20021;-62
2023/12/28 00:27:51;;;;;;;42.95;33.25;;;5.90;99.90;;;;;;5035851;28;20100;-66
2023/12/28 00:30:17;;;;;;;42.00;32.03;;;5.90;99.90;;;;;;5035700;28;20013;-63
2023/12/28 00:32:44;;;;;;;43.63;31.60;;;5.90;99.90;;;;;;5035502;28;20252;-66
2023/12/28 00:35:10;;;;;;;40.22;29.40;;;5.90;99.90;;;;;;5035573;28;20014;-63
2023/12/28 00:37:36;;;;;;;35.15;26.98;;;5.90;99.90;;;;;;5035535;28;20036;-61
2023/12/28 00:40:02;;;;;;;31.40;24.92;;;5.90;99.90;;;;;;5035496;28;20017;-66
2023/12/28 00:42:28;;;;;;;33.55;25.85;;;5.90;99.90;;;;;;5035382;28;20018;-60
2023/12/28 00:44:54;;;;;;;29.45;23.20;;;5.90;99.90;;;;;;5035533;28;20026;-64
2023/12/28 00:47:19;;;;;;;28.90;23.20;;;6.00;99.90;;;;;;5035251;28;20018;-60
2023/12/28 00:49:45;;;;;;;32.60;25.40;;;5.90;99.90;;;;;;5035201;28;20025;-63
2023/12/28 00:52:11;;;;;;;36.83;25.35;;;5.90;99.90;;;;;;5035328;28;20026;-59
2023/12/28 00:54:37;;;;;;;29.30;22.48;;;5.90;99.90;;;;;;5033999;28;20029;-66
2023/12/28 00:57:04;;;;;;;27.27;21.17;;;5.90;99.90;;;;;;5035384;28;20033;-65
2023/12/28 00:59:32;;;;;;;25.45;19.98;;;5.90;99.90;;;;;;5035066;28;20052;-65
2023/12/28 01:01:57;;;;;;;30.35;22.38;;;5.90;99.90;;;;;;5035014;28;20025;-62
2023/12/28 01:04:23;;;;;;;37.55;28.17;;;5.80;99.90;;;;;;5034927;28;20400;-65
2023/12/28 01:06:50;;;;;;;41.10;30.17;;;5.80;99.80;;;;;;5035117;28;20029;-60
2023/12/28 01:09:15;;;;;;;28.00;22.92;;;5.70;99.90;;;;;;5034989;28;20025;-61
2023/12/28 01:11:41;;;;;;;31.75;23.45;;;5.60;99.90;;;;;;5034923;28;20025;-65
2023/12/28 01:14:07;;;;;;;31.35;23.67;;;5.70;99.90;;;;;;5034845;28;20025;-67
2023/12/28 01:16:33;;;;;;;31.55;23.17;;;5.70;99.90;;;;;;5034612;28;20083;-68
2023/12/28 01:18:59;;;;;;;32.70;24.00;;;5.70;99.90;;;;;;5034670;28;20025;-67
2023/12/28 01:21:24;;;;;;;34.55;26.33;;;5.70;99.90;;;;;;5034648;28;20025;-66
2023/12/28 01:23:51;;;;;;;27.80;20.10;;;5.70;99.90;;;;;;5034652;28;20049;-66
2023/12/28 01:26:19;;;;;;;29.20;21.67;;;5.70;99.90;;;;;;5034709;28;20052;-66
2023/12/28 01:28:45;;;;;;;27.23;20.80;;;5.70;99.90;;;;;;5034499;28;20031;-65
2023/12/28 01:31:11;;;;;;;36.30;26.73;;;5.70;99.90;;;;;;5034298;28;20395;-67
2023/12/28 01:33:37;;;;;;;36.00;26.92;;;5.60;99.90;;;;;;5034532;28;20064;-65
2023/12/28 01:36:13;;;;;;;37.75;27.83;;;5.50;99.90;;;;;;5034409;28;20022;-66
2023/12/28 01:38:39;;;;;;;40.63;29.10;;;5.50;99.90;;;;;;5034301;28;20037;-63
2023/12/28 01:41:04;;;;;;;42.53;30.50;;;5.40;99.90;;;;;;5034325;28;20063;-66
2023/12/28 01:43:30;;;;;;;35.70;26.13;;;5.50;99.90;;;;;;5034293;28;20021;-66
2023/12/28 01:45:56;;;;;;;39.10;31.45;;;5.50;99.90;;;;;;5034060;28;20025;-61
2023/12/28 01:48:22;;;;;;;38.53;26.83;;;5.50;99.90;;;;;;5034296;28;20024;-64
2023/12/28 01:50:47;;;;;;;49.47;34.55;;;5.50;99.90;;;;;;5034093;28;20053;-64
2023/12/28 01:53:14;;;;;;;66.40;43.42;;;5.50;99.90;;;;;;5034155;28;20080;-62
2023/12/28 01:55:40;;;;;;;52.00;38.08;;;5.40;99.90;;;;;;5034072;28;20023;-63
2023/12/28 01:58:05;;;;;;;49.97;36.58;;;5.40;99.90;;;;;;5033724;28;20049;-66
2023/12/28 02:00:31;;;;;;;43.45;33.80;;;5.40;99.90;;;;;;5033779;28;20415;-65
2023/12/28 02:02:59;;;;;;;50.25;38.42;;;5.40;99.90;;;;;;5033986;28;20104;-61
2023/12/28 02:05:24;;;;;;;50.72;37.58;;;5.30;99.90;;;;;;5033777;28;20029;-64
2023/12/28 02:07:50;;;;;;;60.72;43.42;;;5.30;99.90;;;;;;5033967;28;20449;-65
2023/12/28 02:10:16;;;;;;;54.00;39.67;;;5.30;99.90;;;;;;5033996;28;20029;-62
2023/12/28 02:12:42;;;;;;;55.20;39.08;;;5.30;99.90;;;;;;5033850;28;20071;-63
2023/12/28 02:15:08;;;;;;;47.90;35.22;;;5.30;99.90;;;;;;5033431;28;20388;-66
2023/12/28 02:17:56;;;;;;;59.17;39.78;;;5.30;99.90;;;;;;5033699;28;20041;-63
2023/12/28 02:20:23;;;;;;;63.95;45.50;;;5.30;99.90;;;;;;5033582;28;20491;-65
2023/12/28 02:22:50;;;;;;;80.80;57.92;;;5.20;99.90;;;;;;5033577;28;20112;-62
2023/12/28 02:25:16;;;;;;;73.20;52.20;;;5.10;99.90;;;;;;5033547;28;20030;-65
2023/12/28 02:27:44;;;;;;;69.10;51.17;;;5.00;99.90;;;;;;5033299;28;20076;-59
2023/12/28 02:30:15;;;;;;;88.07;61.70;;;4.90;99.90;;;;;;5033097;28;20117;-65
2023/12/28 02:32:46;;;;;;;86.43;62.97;;;4.90;99.90;;;;;;5033532;28;20026;-61
2023/12/28 02:35:20;;;;;;;96.93;66.60;;;4.80;99.90;;;;;;5033436;28;20029;-61
2023/12/28 02:37:48;;;;;;;;;;;4.70;99.90;;;;;;5033777;28;20033;-65
2023/12/28 02:40:16;;;;;;;83.10;57.35;;;4.60;99.90;;;;;;5033288;28;20291;-64
2023/12/28 02:42:41;;;;;;;68.25;49.03;;;4.50;99.90;;;;;;5033148;28;20030;-62
2023/12/28 02:45:07;;;;;;;63.67;46.92;;;4.60;99.90;;;;;;5033325;28;20430;-65
2023/12/28 02:47:33;;;;;;;65.80;47.10;;;4.70;99.90;;;;;;5033444;28;20013;-61
2023/12/28 02:49:59;;;;;;;60.05;43.25;;;4.80;99.90;;;;;;5033274;28;20503;-67
2023/12/28 02:52:25;;;;;;;55.28;43.00;;;4.80;99.90;;;;;;5033182;28;20025;-63
2023/12/28 02:54:50;;;;;;;53.63;38.92;;;4.80;99.90;;;;;;5033141;28;20021;-63
2023/12/28 02:57:18;;;;;;;59.08;42.72;;;4.90;99.90;;;;;;5032821;28;20485;-68
2023/12/28 02:59:45;;;;;;;54.42;39.75;;;4.90;99.90;;;;;;5032985;28;20045;-68
2023/12/28 03:02:11;;;;;;;47.00;35.50;;;4.90;99.90;;;;;;5033075;28;20028;-63
2023/12/28 03:04:36;;;;;;;46.10;34.75;;;4.80;99.90;;;;;;5033008;28;20017;-65
2023/12/28 03:07:02;;;;;;;45.08;34.38;;;4.80;99.90;;;;;;5033174;28;20022;-67
2023/12/28 03:09:28;;;;;;;41.40;33.50;;;4.80;99.90;;;;;;5033076;28;20411;-61
2023/12/28 03:11:53;;;;;;;40.28;29.95;;;4.80;99.90;;;;;;5032728;28;20025;-63
2023/12/28 03:14:21;;;;;;;34.72;26.13;;;4.70;99.90;;;;;;5033047;28;20522;-65
2023/12/28 03:16:46;;;;;;;36.03;26.73;;;4.60;99.90;;;;;;5032951;28;20479;-64
2023/12/28 03:19:12;;;;;;;28.65;21.73;;;4.70;99.90;;;;;;5032791;28;20029;-62
2023/12/28 03:21:42;;;;;;;28.65;22.10;;;4.70;99.90;;;;;;5032934;28;20103;-63
2023/12/28 03:24:07;;;;;;;28.08;21.20;;;4.70;99.90;;;;;;5032905;28;20140;-63
2023/12/28 03:26:40;;;;;;;26.52;20.80;;;4.60;99.90;;;;;;5032594;28;20519;-63
2023/12/28 03:29:07;;;;;;;28.05;20.50;;;4.60;99.90;;;;;;5032956;28;20026;-65
2023/12/28 03:31:33;;;;;;;31.77;24.08;;;4.60;99.90;;;;;;5032810;28;20032;-63
2023/12/28 03:33:59;;;;;;;27.80;22.13;;;4.60;99.90;;;;;;5032742;28;20102;-64
2023/12/28 03:36:25;;;;;;;23.90;19.27;;;4.60;99.90;;;;;;5032818;28;20072;-64
2023/12/28 03:38:51;;;;;;;22.15;17.50;;;4.50;99.90;;;;;;5032688;28;20431;-60
2023/12/28 03:41:18;;;;;;;21.60;17.00;;;4.50;99.90;;;;;;5032501;28;20101;-60
2023/12/28 03:43:45;;;;;;;20.45;16.67;;;4.50;99.90;;;;;;5035602;28;20523;-64
2023/12/28 03:46:11;;;;;;;20.67;16.63;;;4.50;99.90;;;;;;5036526;28;20024;-63
2023/12/28 03:48:37;;;;;;;19.00;15.55;;;4.60;99.90;;;;;;5036436;28;20448;-60
2023/12/28 03:51:03;;;;;;;22.45;17.25;;;4.50;99.90;;;;;;5036499;28;20022;-66
2023/12/28 03:53:31;;;;;;;23.15;17.77;;;4.50;99.90;;;;;;5036489;28;20100;-63
2023/12/28 03:55:58;;;;;;;18.88;16.15;;;4.50;99.90;;;;;;5036080;28;20025;-68
2023/12/28 03:58:23;;;;;;;20.65;16.33;;;4.50;99.90;;;;;;5036223;28;20057;-65
2023/12/28 04:00:49;;;;;;;17.55;13.45;;;4.50;99.90;;;;;;5036267;28;20029;-66
2023/12/28 04:03:15;;;;;;;16.40;12.07;;;4.40;99.90;;;;;;5036185;28;20474;-65
2023/12/28 04:05:40;;;;;;;22.20;16.15;;;4.40;99.90;;;;;;5036077;28;20113;-60
2023/12/28 04:08:07;;;;;;;26.17;18.23;;;4.40;99.90;;;;;;5036118;28;20025;-66
2023/12/28 04:10:33;;;;;;;24.25;17.38;;;4.30;99.90;;;;;;5035978;28;20052;-64
2023/12/28 04:13:00;;;;;;;23.23;17.30;;;4.10;99.90;;;;;;5036035;28;20021;-64
2023/12/28 04:15:28;;;;;;;20.02;15.52;;;4.00;99.90;;;;;;5036150;28;20026;-65
2023/12/28 04:17:54;;;;;;;20.50;15.68;;;4.10;99.90;;;;;;5035921;28;20037;-61
2023/12/28 04:20:20;;;;;;;24.67;19.58;;;4.10;99.90;;;;;;5035775;28;20025;-62
2023/12/28 04:22:46;;;;;;;20.65;16.52;;;4.00;99.90;;;;;;5035802;28;20040;-65
2023/12/28 04:25:11;;;;;;;24.60;17.95;;;4.00;99.90;;;;;;5035743;28;20333;-63
2023/12/28 04:27:38;;;;;;;35.83;26.35;;;4.00;99.90;;;;;;5035646;28;20036;-62
2023/12/28 04:30:05;;;;;;;25.58;19.85;;;4.10;99.90;;;;;;5035772;28;20123;-66
2023/12/28 04:32:32;;;;;;;23.75;17.98;;;4.10;99.90;;;;;;5035739;28;20021;-63
2023/12/28 04:34:58;;;;;;;21.45;17.08;;;4.10;99.90;;;;;;5035530;28;20018;-61
2023/12/28 04:37:25;;;;;;;22.90;16.05;;;4.10;99.90;;;;;;5035535;28;20025;-62
2023/12/28 04:39:52;;;;;;;23.23;16.98;;;4.10;99.90;;;;;;5035389;28;20028;-65
2023/12/28 04:42:18;;;;;;;26.45;20.20;;;4.10;99.90;;;;;;5035409;28;20017;-60
2023/12/28 04:44:44;;;;;;;23.92;17.20;;;4.10;99.90;;;;;;5035580;28;20075;-63
2023/12/28 04:47:10;;;;;;;21.95;16.58;;;4.00;99.90;;;;;;5035339;28;20357;-65
2023/12/28 04:49:35;;;;;;;18.70;14.88;;;4.00;99.90;;;;;;5035320;28;20491;-65
2023/12/28 04:52:01;;;;;;;36.15;25.50;;;4.00;99.90;;;;;;5035381;28;20025;-63
2023/12/28 04:54:27;;;;;;;36.42;25.30;;;4.00;99.90;;;;;;5034714;28;20018;-62
2023/12/28 04:56:53;;;;;;;27.92;21.98;;;4.10;99.90;;;;;;5035423;28;20029;-64
2023/12/28 04:59:19;;;;;;;31.27;24.55;;;4.00;99.90;;;;;;5034848;28;20053;-66
2023/12/28 05:01:45;;;;;;;25.42;19.92;;;4.10;99.90;;;;;;5035143;28;20018;-66
2023/12/28 05:04:11;;;;;;;24.70;20.23;;;4.10;99.90;;;;;;5035135;28;20071;-63
2023/12/28 05:06:37;;;;;;;25.35;20.52;;;4.10;99.90;;;;;;5035513;28;20022;-67
2023/12/28 05:09:03;;;;;;;25.05;19.63;;;4.10;99.90;;;;;;5034829;28;20029;-65
2023/12/28 05:11:29;;;;;;;25.42;20.05;;;4.10;99.90;;;;;;5034976;28;20033;-63
2023/12/28 05:13:55;;;;;;;31.17;24.23;;;4.10;99.90;;;;;;5034789;28;20026;-65
2023/12/28 05:16:21;;;;;;;29.70;22.23;;;4.10;99.90;;;;;;5034862;28;20025;-63
2023/12/28 05:18:47;;;;;;;25.90;22.17;;;4.00;99.90;;;;;;5034770;28;20502;-64
2023/12/28 05:21:13;;;;;;;22.77;18.63;;;4.00;99.90;;;;;;5033477;28;20029;-66
2023/12/28 05:23:39;;;;;;;21.48;17.45;;;3.90;99.90;;;;;;5034491;28;20022;-63
2023/12/28 05:26:05;;;;;;;23.67;18.58;;;3.90;99.90;;;;;;5033428;28;20059;-62
2023/12/28 05:28:31;;;;;;;19.85;16.77;;;3.90;99.90;;;;;;5034575;28;20468;-64
2023/12/28 05:30:58;;;;;;;38.58;26.30;;;3.90;99.90;;;;;;5034551;28;20034;-65
2023/12/28 05:33:25;;;;;;;26.15;20.08;;;3.90;99.90;;;;;;5034512;28;20032;-68
2023/12/28 05:35:51;;;;;;;20.50;16.10;;;3.80;99.90;;;;;;5034310;28;20022;-63
2023/12/28 05:38:17;;;;;;;21.98;16.63;;;3.70;99.90;;;;;;5034348;28;20388;-64
2023/12/28 05:40:44;;;;;;;25.88;18.42;;;3.80;99.90;;;;;;5034395;28;20105;-61
2023/12/28 05:43:10;;;;;;;22.35;17.13;;;3.90;99.90;;;;;;5034422;28;20120;-61
2023/12/28 05:45:36;;;;;;;37.70;28.45;;;3.90;99.90;;;;;;5034195;28;20464;-64
2023/12/28 05:48:02;;;;;;;31.50;24.55;;;3.90;99.90;;;;;;5034369;28;20025;-61
2023/12/28 05:50:28;;;;;;;25.67;19.80;;;3.90;99.90;;;;;;5034082;28;20075;-66
2023/12/28 05:52:54;;;;;;;21.88;16.95;;;3.80;99.90;;;;;;5034049;28;20484;-65
2023/12/28 05:55:19;;;;;;;21.30;17.50;;;3.80;99.90;;;;;;5034057;28;20032;-62
2023/12/28 05:57:45;;;;;;;20.52;15.65;;;3.80;99.90;;;;;;5033750;28;20084;-67
2023/12/28 06:00:11;;;;;;;18.23;15.50;;;3.80;99.90;;;;;;5033872;28;20024;-59
2023/12/28 06:02:37;;;;;;;18.75;14.60;;;3.80;99.90;;;;;;5033812;28;20096;-62
2023/12/28 06:05:03;;;;;;;18.40;14.40;;;3.70;99.90;;;;;;5033036;28;20104;-68
2023/12/28 06:07:28;;;;;;;17.92;13.95;;;3.70;99.90;;;;;;5032677;28;20036;-64
2023/12/28 06:09:54;;;;;;;16.55;12.43;;;3.80;99.90;;;;;;5034029;28;20435;-67
2023/12/28 06:12:20;;;;;;;18.17;13.75;;;3.80;99.90;;;;;;5033756;28;20018;-67
2023/12/28 06:14:46;;;;;;;17.23;13.43;;;3.80;99.90;;;;;;5033637;28;20096;-63
2023/12/28 06:17:11;;;;;;;13.25;11.43;;;3.70;99.90;;;;;;5034084;28;20341;-63
2023/12/28 06:19:37;;;;;;;14.27;11.60;;;3.80;99.90;;;;;;5033320;28;21114;-62
2023/12/28 06:22:03;;;;;;;16.95;12.63;;;3.70;99.90;;;;;;5031289;28;20032;-64
2023/12/28 06:24:28;;;;;;;27.80;17.42;;;3.80;99.90;;;;;;5037905;28;20029;-62
2023/12/28 06:26:54;;;;;;;19.77;13.20;;;3.80;99.90;;;;;;5038392;28;20029;-65
2023/12/28 06:29:20;;;;;;;16.75;13.18;;;3.80;99.90;;;;;;5041235;28;20034;-63
2023/12/28 06:31:45;;;;;;;16.15;12.88;;;3.70;99.90;;;;;;5032773;28;20021;-62
2023/12/28 06:34:11;;;;;;;19.92;14.48;;;3.70;99.90;;;;;;5032016;28;20406;-63
2023/12/28 06:36:37;;;;;;;26.27;20.30;;;3.70;99.90;;;;;;5052374;28;20025;-68
2023/12/28 06:39:03;;;;;;;20.33;16.42;;;3.70;99.90;;;;;;5052973;28;20024;-66
2023/12/28 06:41:28;;;;;;;30.02;22.77;;;3.70;99.90;;;;;;5053116;28;20029;-63
2023/12/28 06:43:54;;;;;;;26.45;20.35;;;3.70;99.90;;;;;;5053208;28;20021;-62
2023/12/28 06:46:20;;;;;;;31.27;21.63;;;3.70;99.90;;;;;;5052990;28;20032;-62
2023/12/28 06:48:46;;;;;;;25.08;19.95;;;3.70;99.90;;;;;;5052823;28;20052;-65
2023/12/28 06:51:21;;;;;;;39.72;28.88;;;3.80;99.90;;;;;;5052918;28;20429;-64
2023/12/28 06:53:48;;;;;;;38.90;27.02;;;3.80;99.90;;;;;;5052798;28;20106;-65
2023/12/28 06:56:14;;;;;;;54.08;39.28;;;3.70;99.90;;;;;;5052744;28;20021;-63
2023/12/28 06:58:40;;;;;;;63.33;44.95;;;3.70;99.90;;;;;;5047705;28;20072;-62
2023/12/28 07:01:07;;;;;;;63.13;45.13;;;3.70;99.90;;;;;;5052197;28;20056;-63
2023/12/28 07:03:33;;;;;;;61.00;43.28;;;3.80;99.90;;;;;;5051702;28;20028;-64
2023/12/28 07:05:59;;;;;;;53.08;39.38;;;3.90;99.90;;;;;;5052727;28;20025;-64
2023/12/28 07:08:25;;;;;;;45.72;33.95;;;3.90;99.90;;;;;;5052835;28;20029;-64
2023/12/28 07:10:51;;;;;;;42.97;33.40;;;4.00;99.90;;;;;;5051783;28;20494;-65
2023/12/28 07:13:16;;;;;;;43.17;36.17;;;4.00;99.90;;;;;;5052288;28;20017;-64
2023/12/28 07:15:42;;;;;;;78.70;56.15;;;4.10;99.90;;;;;;5051882;28;20037;-62
2023/12/28 07:18:08;;;;;;;70.10;50.25;;;4.20;99.90;;;;;;5047474;28;20029;-63
2023/12/28 07:20:34;;;;;;;50.10;38.72;;;4.20;99.90;;;;;;5058931;28;20051;-61
2023/12/28 07:23:00;;;;;;;47.78;35.47;;;4.30;99.90;;;;;;5063296;28;20024;-66
2023/12/28 07:25:25;;;;;;;44.03;34.38;;;4.30;99.90;;;;;;5046391;28;20029;-69
2023/12/28 07:27:51;;;;;;;50.25;36.92;;;4.30;99.90;;;;;;5044170;28;20022;-66
2023/12/28 07:30:17;;;;;;;51.63;37.47;;;4.40;99.90;;;;;;5045477;28;20027;-63
2023/12/28 07:32:44;;;;;;;61.05;39.38;;;4.30;99.90;;;;;;5038874;28;20032;-66
2023/12/28 07:35:10;;;;;;;52.17;37.78;;;4.30;99.90;;;;;;5036675;28;20021;-61
2023/12/28 07:37:36;;;;;;;71.88;41.75;;;4.30;99.90;;;;;;5036888;28;20442;-73
2023/12/28 07:40:03;;;;;;;75.03;39.25;;;4.20;99.90;;;;;;5040931;28;20029;-67
2023/12/28 07:42:29;;;;;;;64.97;38.35;;;4.20;99.90;;;;;;5047227;28;20030;-65
2023/12/28 07:44:54;;;;;;;55.85;34.67;;;4.10;99.90;;;;;;5044757;28;20033;-67
2023/12/28 07:47:20;;;;;;;65.10;35.75;;;4.10;99.90;;;;;;5044206;28;20030;-65
2023/12/28 07:49:46;;;;;;;208.90;58.17;;;4.20;99.90;;;;;;5043094;28;20030;-62
2023/12/28 07:52:12;;;;;;;94.85;39.42;;;4.20;99.90;;;;;;5051457;28;20466;-63
2023/12/28 07:54:37;;;;;;;58.28;30.50;;;4.20;99.90;;;;;;5050724;28;20064;-66
2023/12/28 07:57:03;;;;;;;40.20;28.98;;;4.20;99.90;;;;;;5033652;28;20029;-64
2023/12/28 07:59:29;;;;;;;48.20;30.88;;;4.30;99.90;;;;;;5042916;28;20131;-62
2023/12/28 08:01:55;;;;;;;37.60;27.77;;;4.40;99.90;;;;;;5050661;28;20044;-63
2023/12/28 08:04:21;;;;;;;37.42;27.25;;;4.50;99.90;;;;;;5034298;28;20113;-64
2023/12/28 08:06:47;;;;;;;119.07;47.85;;;4.60;99.90;;;;;;5045192;28;20116;-64
2023/12/28 08:09:12;;;;;;;68.85;39.45;;;4.70;99.90;;;;;;5053143;28;20377;-59
2023/12/28 08:11:38;;;;;;;56.55;34.30;;;4.60;99.90;;;;;;5051984;28;20026;-63
2023/12/28 08:14:05;;;;;;;76.28;36.28;;;4.70;99.90;;;;;;5044733;28;20025;-63
2023/12/28 08:16:30;;;;;;;66.63;36.10;;;4.70;99.90;;;;;;5043801;28;20021;-65
2023/12/28 08:18:56;;;;;;;43.67;31.20;;;4.80;99.90;;;;;;5046593;28;20103;-68
2023/12/28 08:21:22;;;;;;;79.35;45.80;;;4.90;99.90;;;;;;5045709;28;20044;-67
2023/12/28 08:23:48;;;;;;;43.10;32.28;;;5.00;99.90;;;;;;5043205;28;20537;-64
2023/12/28 08:26:14;;;;;;;40.47;31.42;;;5.00;99.90;;;;;;5042796;28;20028;-61
2023/12/28 08:28:40;;;;;;;42.72;32.95;;;5.00;99.90;;;;;;5045310;28;20033;-68
2023/12/28 08:31:08;;;;;;;56.67;37.88;;;5.10;99.90;;;;;;5043091;28;20025;-71
2023/12/28 08:33:39;;;;;;;77.53;52.47;;;5.20;99.90;;;;;;5045869;28;20472;-68
2023/12/28 08:36:06;;;;;;;86.82;54.78;;;5.30;99.90;;;;;;5042854;28;20028;-70
2023/12/28 08:38:32;;;;;;;74.05;49.95;;;5.30;99.90;;;;;;5033295;28;20119;-65
2023/12/28 08:40:58;;;;;;;72.57;47.55;;;5.30;99.90;;;;;;5035176;28;20103;-67
2023/12/28 08:43:23;;;;;;;63.15;42.92;;;5.30;99.90;;;;;;5035179;28;20493;-65
2023/12/28 08:45:49;;;;;;;58.80;40.72;;;5.30;99.90;;;;;;5035095;28;20101;-65
2023/12/28 08:48:15;;;;;;;88.97;58.50;;;5.50;99.90;;;;;;5051486;28;20065;-61
2023/12/28 08:50:40;;;;;;;86.05;53.72;;;5.50;99.90;;;;;;5052935;28;20104;-68
2023/12/28 08:53:06;;;;;;;73.35;51.40;;;5.50;99.90;;;;;;5053178;28;20495;-67
2023/12/28 08:55:33;;;;;;;73.35;54.15;;;5.60;99.90;;;;;;5051863;28;20021;-67
2023/12/28 08:57:59;;;;;;;67.43;50.83;;;5.80;99.90;;;;;;5054265;28;20442;-70
2023/12/28 09:00:25;;;;;;;68.38;50.35;;;5.90;99.90;;;;;;5054269;28;20025;-65
2023/12/28 09:02:51;;;;;;;62.25;46.42;;;6.00;99.90;;;;;;5054288;28;20024;-65
2023/12/28 09:05:17;;;;;;;76.75;51.65;;;6.30;99.90;;;;;;5052796;28;20017;-66
2023/12/28 09:07:43;;;;;;;64.15;46.10;;;6.50;99.90;;;;;;5050676;28;20690;-68
2023/12/28 09:10:13;;;;;;;57.05;43.78;;;6.60;99.60;;;;;;5042919;28;20075;-70
2023/12/28 09:12:41;;;;;;;73.65;53.25;;;6.70;99.50;;;;;;5031771;28;20056;-69
2023/12/28 09:15:07;;;;;;;105.20;67.00;;;6.90;98.10;;;;;;5032707;28;20053;-65
2023/12/28 09:17:33;;;;;;;72.60;53.67;;;6.80;97.70;;;;;;5033721;28;20023;-73
2023/12/28 09:20:01;;;;;;;76.93;53.72;;;6.90;97.70;;;;;;5033549;28;20365;-68
2023/12/28 09:22:27;;;;;;;87.65;56.13;;;7.00;97.10;;;;;;5052496;28;20507;-65
2023/12/28 09:24:52;;;;;;;86.03;57.40;;;7.00;96.90;;;;;;5051026;28;20060;-64
2023/12/28 09:27:18;;;;;;;72.32;51.33;;;6.90;97.00;;;;;;5043999;28;20090;-72
2023/12/28 09:29:44;;;;;;;71.22;52.42;;;6.90;97.20;;;;;;5046896;28;20035;-68
2023/12/28 09:32:09;;;;;;;89.70;60.15;;;6.90;97.50;;;;;;5036803;28;20491;-64
2023/12/28 09:34:35;;;;;;;78.88;52.55;;;6.80;97.60;;;;;;5034235;28;20032;-68
2023/12/28 09:37:01;;;;;;;75.25;54.28;;;6.80;97.40;;;;;;5033706;28;20104;-62
2023/12/28 09:39:27;;;;;;;70.78;52.75;;;6.80;97.90;;;;;;5038724;28;20052;-64
2023/12/28 09:42:04;;;;;;;65.22;50.33;;;6.80;98.20;;;;;;5039466;28;20035;-65
2023/12/28 09:44:32;;;;;;;74.22;50.08;;;6.90;99.50;;;;;;5046467;28;20030;-61
2023/12/28 09:46:58;;;;;;;107.72;53.85;;;6.90;99.50;;;;;;5045983;28;20112;-66
2023/12/28 09:49:23;;;;;;;89.43;53.80;;;7.00;99.90;;;;;;5048842;28;21013;-62
2023/12/28 09:51:49;;;;;;;81.93;53.83;;;6.90;99.90;;;;;;5046555;28;20407;-63
2023/12/28 09:54:16;;;;;;;55.78;45.72;;;6.90;99.90;;;;;;5034804;28;20017;-64
2023/12/28 09:56:43;;;;;;;58.33;46.75;;;7.10;99.90;;;;;;5036110;28;20025;-59
2023/12/28 09:59:09;;;;;;;54.83;42.88;;;7.40;99.30;;;;;;5034147;28;20034;-65
2023/12/28 10:01:36;;;;;;;48.58;41.08;;;7.70;98.50;;;;;;5033134;28;20483;-63
2023/12/28 10:04:05;;;;;;;51.78;44.05;;;8.10;97.50;;;;;;5035725;28;20017;-61
2023/12/28 10:06:30;;;;;;;67.72;53.33;;;8.40;94.60;;;;;;5039903;28;20024;-67
2023/12/28 10:08:56;;;;;;;65.22;50.60;;;8.70;92.10;;;;;;5039494;28;20103;-65
2023/12/28 10:11:23;;;;;;;51.85;44.45;;;8.90;92.40;;;;;;5037718;28;20436;-61
2023/12/28 10:13:49;;;;;;;53.55;41.72;;;9.20;93.30;;;;;;5043045;28;20424;-64
2023/12/28 10:16:16;;;;;;;51.38;40.80;;;9.20;92.70;;;;;;5044207;28;20100;-67
2023/12/28 10:18:45;;;;;;;47.58;39.72;;;9.30;91.30;;;;;;5048210;28;20475;-61
2023/12/28 10:21:11;;;;;;;45.47;38.45;;;9.60;91.20;;;;;;5042903;28;20033;-61
2023/12/28 10:23:38;;;;;;;51.33;41.50;;;9.90;90.60;;;;;;5046885;28;20100;-67
2023/12/28 10:26:05;;;;;;;50.60;42.08;;;10.20;86.20;;;;;;5053174;28;20343;-62
2023/12/28 10:28:39;;;;;;;56.70;42.80;;;10.30;88.80;;;;;;5036665;28;20041;-64
2023/12/28 10:31:17;;;;;;;40.95;36.45;;;10.50;85.40;;;;;;5030886;28;20025;-66
2023/12/28 10:33:47;;;;;;;43.13;38.35;;;10.60;85.40;;;;;;5044026;28;20399;-63
2023/12/28 10:36:18;;;;;;;43.17;37.20;;;10.90;84.00;;;;;;5071050;28;20117;-66
2023/12/28 10:38:47;;;;;;;49.90;40.85;;;11.00;81.40;;;;;;5061082;28;20045;-62
2023/12/28 10:41:14;;;;;;;45.10;39.50;;;11.30;74.80;;;;;;5040728;28;20049;-66
2023/12/28 10:44:03;;;;;;;51.22;39.72;;;11.40;77.90;;;;;;5052114;28;20114;-66
2023/12/28 10:46:31;;;;;;;44.63;36.70;;;11.50;76.20;;;;;;5047579;28;20064;-66
2023/12/28 10:49:09;;;;;;;41.78;35.03;;;11.60;77.30;;;;;;5035889;28;20021;-67
2023/12/28 10:51:38;;;;;;;40.63;36.25;;;11.80;73.00;;;;;;5042324;28;20395;-63
2023/12/28 10:54:25;;;;;;;37.75;33.63;;;12.00;69.50;;;;;;5050160;28;20024;-66
2023/12/28 10:57:00;;;;;;;37.65;33.75;;;12.10;70.10;;;;;;5048526;28;20063;-63
2023/12/28 10:59:42;;;;;;;39.20;35.00;;;12.20;70.50;;;;;;5047537;28;20040;-63
2023/12/28 11:02:11;;;;;;;36.60;32.67;;;12.50;66.70;;;;;;5046951;28;20028;-61
2023/12/28 11:04:50;;;;;;;47.10;39.85;;;12.80;69.60;;;;;;5033720;28;20447;-64
2023/12/28 11:07:18;;;;;;;46.47;41.05;;;13.00;64.80;;;;;;5041083;28;20068;-66
2023/12/28 11:09:44;;;;;;;42.00;37.70;;;13.10;64.40;;;;;;5038618;28;20490;-66
2023/12/28 11:12:11;;;;;;;45.72;40.85;;;13.20;61.60;;;;;;5037003;28;20032;-66
2023/12/28 11:14:40;;;;;;;52.83;45.97;;;13.40;60.90;;;;;;5036888;28;20487;-67
2023/12/28 11:17:06;;;;;;;48.28;43.05;;;13.50;58.60;;;;;;5030459;28;20431;-64
2023/12/28 11:19:33;;;;;;;50.08;44.97;;;13.30;60.50;;;;;;5031767;28;20364;-65
2023/12/28 11:22:01;;;;;;;47.35;42.13;;;13.40;61.80;;;;;;5031345;28;20544;-62
2023/12/28 11:24:29;;;;;;;58.92;48.92;;;13.60;63.20;;;;;;5030107;28;20107;-68
2023/12/28 11:26:55;;;;;;;50.10;45.00;;;13.70;60.80;;;;;;5030594;28;20052;-64
2023/12/28 11:29:21;;;;;;;50.45;45.00;;;13.80;60.10;;;;;;5032902;28;20405;-68
2023/12/28 11:32:00;;;;;;;48.15;43.08;;;14.00;58.80;;;;;;5030904;28;20022;-67
2023/12/28 11:34:33;;;;;;;49.63;44.53;;;14.10;59.70;;;;;;5031433;28;20025;-70
2023/12/28 11:37:03;;;;;;;46.50;41.88;;;14.40;57.50;;;;;;5032790;28;20031;-67
2023/12/28 11:39:34;;;;;;;43.22;38.80;;;14.60;58.20;;;;;;5031854;28;20025;-69
2023/12/28 11:42:04;;;;;;;40.22;36.22;;;14.70;57.70;;;;;;5032823;28;20022;-63
2023/12/28 11:44:44;;;;;;;41.40;37.20;;;14.80;58.00;;;;;;5031578;28;20017;-65
2023/12/28 11:47:20;;;;;;;41.28;37.10;;;15.00;57.80;;;;;;5032320;28;20483;-63
2023/12/28 11:49:47;;;;;;;43.10;38.67;;;15.10;56.90;;;;;;5041425;28;20021;-69
2023/12/28 11:52:28;;;;;;;44.65;40.00;;;15.20;56.50;;;;;;5042791;28;20053;-66
2023/12/28 11:54:54;;;;;;;42.60;38.22;;;15.30;56.00;;;;;;5048870;28;20048;-69
2023/12/28 11:57:20;;;;;;;44.40;39.72;;;15.20;56.90;;;;;;5051886;28;20040;-67
2023/12/28 11:59:57;;;;;;;46.45;41.63;;;15.20;56.60;;;;;;5051653;28;20052;-66
2023/12/28 12:02:24;;;;;;;53.47;45.60;;;15.20;56.70;;;;;;5051990;28;20040;-67
2023/12/28 12:04:49;;;;;;;47.67;42.83;;;15.00;56.30;;;;;;5055327;28;20029;-68
2023/12/28 12:07:15;;;;;;;52.17;46.75;;;15.00;57.90;;;;;;5055212;28;20426;-66
2023/12/28 12:09:41;;;;;;;46.42;41.80;;;15.20;56.60;;;;;;5053903;28;20032;-63
2023/12/28 12:12:07;;;;;;;47.63;42.53;;;15.30;57.00;;;;;;5053969;28;20048;-69
2023/12/28 12:14:34;;;;;;;43.30;38.75;;;15.30;56.10;;;;;;5053799;28;20021;-65
2023/12/28 12:17:01;;;;;;;45.13;40.47;;;15.30;56.50;;;;;;5052006;28;20025;-65
2023/12/28 12:19:28;;;;;;;44.50;39.85;;;15.40;56.40;;;;;;5052606;28;20128;-66
2023/12/28 12:21:57;;;;;;;40.33;36.25;;;15.40;56.70;;;;;;5053867;28;20025;-66
2023/12/28 12:24:23;;;;;;;44.75;40.28;;;15.50;56.70;;;;;;5052864;28;20048;-64
2023/12/28 12:26:51;;;;;;;53.58;47.70;;;15.60;56.60;;;;;;5049139;28;20505;-65
2023/12/28 12:29:17;;;;;;;56.35;50.53;;;15.80;55.70;;;;;;5042209;28;20080;-67
2023/12/28 12:31:46;;;;;;;51.83;46.28;;;15.90;55.60;;;;;;5040021;28;20468;-66
2023/12/28 12:34:15;;;;;;;48.95;43.97;;;16.10;55.20;;;;;;5043516;28;20022;-67